Escanaba, MI (49829)

5:28 AM EDT on September 05, 2015 (GMT -0400)
MesoWest | | Change Station
CLOSE
Current Station
Personal Weather Station
Location: Wells, MI
Elevation: 648 ft
Nearby Weather Stations

Elev 648 ft 45.79 °N, 87.08 °W | Updated 48 minutes ago

Overcast
Overcast
68 °F
Feels Like 68 °F
N
3
Wind Variable Wind from NE
Gusts 6.0 mph

Today
High -- | Low -- °F
--% Chance of Precip.
Yesterday
High -- | Low -- °F
Precip. -- in
7:14 AM 8:19 PM
Waning Gibbous, 50% visible
Pressure 30.05 in
Visibility 5.0 miles
Clouds Overcast 900 ft
Dew Point 65 °F
Humidity 91%
Rainfall in
Snow Depth Not available.
UV 0 out of 12
Pollen 8.90 out of 12
Air Quality Not available.
Flu Activity Not available.
METAR KESC 050915Z AUTO 00000KT 5SM OVC009 20/19 A3005 RMK AO1
Pressure 30.05 in
Visibility 5.0 miles
Clouds Overcast 900 ft
Dew Point 65 °F
Humidity 91%
Rainfall in
Snow Depth Not available.
UV 0 out of 12
Pollen 8.90 out of 12
Air Quality Not available.
Flu Activity Not available.
METAR KESC 050915Z AUTO 00000KT 5SM OVC009 20/19 A3005 RMK AO1

10-Day Weather Forecast

×

Almanac

Astronomy

Sep. 05, 2015 Rise Set
Actual Time
Civil Twilight
Nautical Twilight
Astronomical Twilight
Moon
Length of Visible Light
Length of Day
Tomorrow will be .
, % of the Moon is Illuminated

Today's Extremes

State Highs State Lows

Community

WunderPhotos

Upload Photos

1,852,440 photos uploaded!

WunderBlogs® & News

Nearby

Air Quality

  Air Quality AQ Index Pollutant
Not available.

Snow Depth

Station Depth Elevation

Earthquake Activity

City Distance Mag. Time & Date
Minimum magnitude displayed is 2.5.

Coastal Water Temperatures

Place Temperature

Stations

Nearby Weather Stations

Station Location Temp. Windchill Dew Point Humidity Wind Precip. Elev Updated Type